Etusivu
METAR-TAF:

METAR-TAF

Lentoasemat :

Alice Springs, Australia

Leveyspiiri: 23-48S, Pituuspiiri: 133-53E, korkeus merenpinnasta: 545 m

Tämänhetkinen sää

Tämä raportti tehtiin 41 minuuttia sitten, kello 01.00 UTC
Tuuli 4 kn lounaasta, vaihdellen etelän/lounaan ja lännen välillä
Lämpötila 21°C
Kosteus 30%
Ilmanpaine 1022 hPa
Näkyvyys 10 km tai enemmän
ei pilviä alle 1500 m:ssä eikä cumulonimbus-pilviä

METAR: YBAS 230100Z 22004KT 200V270 CAVOK 21/03 Q1022 RF00.0/000.0

Aika: 11:11 (01:41 UTC)

Sääennuste

Tämä raportti tehtiin 2 tuntia ja 18 minuuttia sitten, kello 23.23 UTC
Ennuste voimassa 23. päivästä klo 00 UTC - 23. päivään klo 24 UTC
Tuuli 8 kn koillisesta
Näkyvyys 10 km tai enemmän
ei pilviä alle 1500 m:ssä eikä cumulonimbus-pilviä
From 23. päivästä klo 1300 UTC
Tuuli 5 kn lännestä/luoteesta
Näkyvyys 10 km tai enemmän
ei pilviä alle 1500 m:ssä eikä cumulonimbus-pilviä

TAF: YBAS 222323Z 2300/2324 05008KT CAVOK FM231300 30005KT CAVOK

Säähavainnot ja -ennusteet yli 4000 lentoasemalta (METAR- ja TAF-raportit).

Käytössä olevat sääasemat on merkitty karttaan keltaisilla ja punaisilla pisteillä.

Aseta hiiri pisteen päälle nähdäksesi sääaseman nimen.

Klikkaa sitten nähdäksesi säähavainnot ja -ennusteet.

Kartan vaihtaminen: klikkaa mustalla rastilla varustettuja vihreitä pisteitä, niin voit zoomata sisään; viivalla varustettua vihreää pistettä, niin voit zoomata ulos tai vihreitä nuolia, niin pääset viereisille kartoille.


METAR-TAF: